Time;durP1;ratioP1;P1;durP2;ratioP2;P2;SDS_P1;SDS_P2;PMS_P1;PMS_P2;Temp;Humidity;BMP_temperature;BMP_pressure;BME280_temperature;BME280_humidity;BME280_pressure;Samples;Min_cycle;Max_cycle;Signal;HPM_P1;HPM_P2
2022/07/20 00:02:09;;;;;;;6.05;5.45;;;27.10;45.60;;;;;;4705454;56;21004;-34
2022/07/20 00:07:09;;;;;;;6.70;6.05;;;27.20;45.60;;;;;;4713548;56;21015;-35
2022/07/20 00:12:10;;;;;;;6.80;5.90;;;27.20;45.80;;;;;;4615403;60;21067;-32
2022/07/20 00:17:13;;;;;;;6.28;5.40;;;27.20;45.70;;;;;;4666117;56;21076;-33
2022/07/20 00:22:14;;;;;;;5.93;5.32;;;27.20;45.80;;;;;;4615109;60;21519;-30
2022/07/20 00:27:15;;;;;;;6.05;5.45;;;27.20;45.80;;;;;;4848445;56;21024;-29
2022/07/20 00:32:16;;;;;;;5.60;5.10;;;27.20;45.90;;;;;;4737617;56;21012;-30
2022/07/20 00:37:16;;;;;;;6.18;5.25;;;27.10;46.00;;;;;;4615444;56;21569;-32
2022/07/20 00:42:17;;;;;;;6.68;5.47;;;27.10;45.90;;;;;;4768627;56;21095;-34
2022/07/20 00:47:18;;;;;;;6.20;5.20;;;27.10;46.10;;;;;;4646078;56;21019;-33
2022/07/20 00:52:19;;;;;;;6.45;5.37;;;27.10;45.80;;;;;;4614833;60;21932;-34
2022/07/20 00:57:20;;;;;;;5.87;5.28;;;27.10;46.10;;;;;;4715132;56;21024;-33
2022/07/20 01:02:21;;;;;;;5.60;5.03;;;27.10;46.10;;;;;;4635404;56;21534;-33
2022/07/20 01:07:22;;;;;;;5.60;5.00;;;27.10;46.10;;;;;;4615120;60;20997;-33
2022/07/20 01:12:23;;;;;;;5.45;4.95;;;27.10;46.10;;;;;;4623783;56;21040;-31
2022/07/20 01:17:24;;;;;;;5.55;4.97;;;27.10;46.20;;;;;;4615331;60;21019;-32
2022/07/20 01:22:25;;;;;;;6.22;5.30;;;27.10;46.00;;;;;;4615113;60;21522;-32
2022/07/20 01:27:26;;;;;;;5.57;5.07;;;27.20;46.20;;;;;;4678909;56;21566;-30
2022/07/20 01:32:26;;;;;;;6.18;5.00;;;27.20;46.20;;;;;;4618521;56;21024;-34
2022/07/20 01:37:28;;;;;;;6.30;5.05;;;27.10;46.20;;;;;;4731457;56;21012;-32
2022/07/20 01:42:29;;;;;;;5.30;4.80;;;27.10;46.00;;;;;;4796498;56;21475;-31
2022/07/20 01:47:29;;;;;;;5.95;5.07;;;27.10;46.30;;;;;;4764720;56;21015;-36
2022/07/20 01:52:30;;;;;;;5.40;4.87;;;27.10;46.40;;;;;;4615216;60;21052;-35
2022/07/20 01:57:32;;;;;;;5.18;4.65;;;27.10;46.20;;;;;;4615944;56;21017;-34
2022/07/20 02:02:32;;;;;;;4.90;4.50;;;27.10;46.20;;;;;;4638094;56;21020;-35
2022/07/20 02:07:33;;;;;;;5.07;4.57;;;27.20;46.40;;;;;;4638813;56;21037;-36
2022/07/20 02:12:35;;;;;;;5.62;5.00;;;27.10;46.40;;;;;;4741738;56;20993;-34
2022/07/20 02:17:36;;;;;;;5.32;4.82;;;27.10;46.30;;;;;;4615339;60;20984;-32
2022/07/20 02:22:37;;;;;;;4.72;4.22;;;27.10;46.50;;;;;;4645525;56;21071;-36
2022/07/20 02:27:38;;;;;;;5.10;4.60;;;27.10;46.40;;;;;;4660449;56;21087;-36
2022/07/20 02:32:39;;;;;;;5.57;4.45;;;27.10;46.60;;;;;;4622599;56;21029;-34
2022/07/20 02:37:39;;;;;;;5.30;4.80;;;27.10;46.40;;;;;;4661228;56;21100;-30
2022/07/20 02:42:40;;;;;;;4.60;4.20;;;27.10;46.50;;;;;;4839938;56;21076;-34
2022/07/20 02:47:43;;;;;;;4.72;4.32;;;27.10;46.50;;;;;;4821592;56;21068;-28
2022/07/20 02:52:44;;;;;;;4.80;4.30;;;27.10;46.30;;;;;;4615129;60;21096;-36
2022/07/20 02:57:44;;;;;;;5.10;4.60;;;27.10;46.40;;;;;;4634511;56;21136;-34
2022/07/20 03:02:49;;;;;;;5.20;4.65;;;27.10;46.20;;;;;;4615442;60;21483;-36
2022/07/20 03:07:50;;;;;;;4.70;4.30;;;27.10;46.30;;;;;;4615056;60;21020;-34
2022/07/20 03:12:51;;;;;;;5.32;4.55;;;27.10;46.30;;;;;;4615025;60;21105;-31
2022/07/20 03:17:53;;;;;;;5.15;4.47;;;27.10;46.30;;;;;;4671630;56;21573;-31
2022/07/20 03:22:55;;;;;;;5.15;4.32;;;27.00;46.10;;;;;;4642334;56;21056;-35
2022/07/20 03:27:57;;;;;;;4.87;4.30;;;27.10;46.20;;;;;;4968873;56;21119;-32
2022/07/20 03:32:58;;;;;;;4.78;4.32;;;27.10;46.20;;;;;;4659332;56;21111;-33
2022/07/20 03:37:59;;;;;;;4.53;4.07;;;27.10;45.90;;;;;;4696448;56;21495;-34
2022/07/20 03:42:59;;;;;;;4.55;3.97;;;27.10;45.90;;;;;;4683366;56;21135;-37
2022/07/20 03:48:00;;;;;;;4.60;4.20;;;27.10;45.90;;;;;;4882026;56;21024;-34
2022/07/20 03:53:01;;;;;;;5.43;4.30;;;27.00;45.90;;;;;;4639714;56;21071;-33
2022/07/20 03:58:02;;;;;;;6.15;4.28;;;27.00;45.90;;;;;;5059924;56;21100;-30
2022/07/20 04:03:03;;;;;;;4.45;3.87;;;27.00;45.60;;;;;;4615171;60;21479;-30
2022/07/20 04:08:08;;;;;;;4.57;4.18;;;27.10;45.80;;;;;;4834760;56;21024;-31
2022/07/20 04:13:08;;;;;;;4.57;4.10;;;27.00;45.80;;;;;;4878587;56;21488;-32
2022/07/20 04:18:09;;;;;;;4.85;4.28;;;27.00;45.50;;;;;;4668644;56;21036;-31
2022/07/20 04:23:11;;;;;;;4.57;4.03;;;27.00;45.50;;;;;;4747400;56;21057;-29
2022/07/20 04:28:12;;;;;;;6.72;3.97;;;27.00;45.70;;;;;;4615398;60;21570;-30
2022/07/20 04:33:13;;;;;;;4.37;3.97;;;27.00;45.60;;;;;;4698097;56;21084;-32
2022/07/20 04:38:14;;;;;;;5.43;4.10;;;27.00;45.50;;;;;;4655058;56;21036;-33
2022/07/20 04:43:14;;;;;;;4.68;3.87;;;27.00;45.50;;;;;;4634730;56;21028;-29
2022/07/20 04:48:15;;;;;;;4.68;4.18;;;27.00;45.20;;;;;;4709835;56;21482;-33
2022/07/20 04:53:16;;;;;;;4.15;3.85;;;27.00;45.40;;;;;;4637804;56;21036;-31
2022/07/20 04:58:17;;;;;;;4.40;3.87;;;27.00;45.40;;;;;;4726635;56;21032;-34
2022/07/20 05:03:18;;;;;;;4.75;3.97;;;27.00;45.40;;;;;;4647441;56;21097;-29
2022/07/20 05:08:19;;;;;;;5.78;4.40;;;27.00;45.40;;;;;;4637585;56;21539;-28
2022/07/20 05:13:19;;;;;;;4.32;3.92;;;26.90;45.20;;;;;;4680975;56;21024;-29
2022/07/20 05:18:20;;;;;;;4.82;4.20;;;26.90;45.10;;;;;;4632040;56;21016;-32
2022/07/20 05:23:21;;;;;;;4.75;4.20;;;26.90;45.10;;;;;;4726965;56;21052;-32
2022/07/20 05:28:22;;;;;;;4.87;4.15;;;27.00;45.10;;;;;;4913183;56;21060;-34
2022/07/20 05:33:23;;;;;;;5.72;4.10;;;26.90;45.70;;;;;;4615133;60;21486;-31
2022/07/20 05:38:24;;;;;;;5.75;4.20;;;26.90;45.20;;;;;;4621887;56;21483;-35
2022/07/20 05:43:25;;;;;;;6.82;4.25;;;26.90;45.20;;;;;;4680136;56;21084;-29
2022/07/20 05:48:26;;;;;;;5.30;4.15;;;26.90;45.00;;;;;;4632980;56;21009;-28
2022/07/20 05:53:27;;;;;;;4.78;4.20;;;27.00;45.10;;;;;;4652758;56;21571;-32
2022/07/20 05:58:27;;;;;;;4.70;4.28;;;26.90;45.20;;;;;;4645238;56;21033;-32
2022/07/20 06:03:28;;;;;;;5.75;5.00;;;27.00;45.20;;;;;;4702263;56;21053;-30
2022/07/20 06:08:29;;;;;;;6.82;4.57;;;26.90;45.20;;;;;;4705273;56;21000;-32
2022/07/20 06:13:30;;;;;;;6.12;4.85;;;26.90;44.80;;;;;;4642594;56;20989;-31
2022/07/20 06:18:30;;;;;;;5.28;4.50;;;26.90;45.00;;;;;;4632209;56;21020;-32
2022/07/20 06:23:31;;;;;;;5.80;4.57;;;26.90;45.00;;;;;;4614358;60;21591;-33
2022/07/20 06:28:32;;;;;;;6.75;4.47;;;26.90;44.90;;;;;;4790708;56;21566;-34
2022/07/20 06:33:33;;;;;;;7.22;4.90;;;26.90;45.10;;;;;;4651840;56;21502;-30
2022/07/20 06:38:34;;;;;;;7.30;5.25;;;26.90;45.00;;;;;;4615252;60;21013;-30
2022/07/20 06:43:35;;;;;;;5.18;4.57;;;26.90;44.80;;;;;;4694353;56;21008;-35
2022/07/20 06:48:36;;;;;;;5.97;4.97;;;26.90;45.00;;;;;;4693034;56;21020;-32
2022/07/20 06:53:37;;;;;;;5.47;4.97;;;26.90;45.00;;;;;;4660560;56;21562;-29
2022/07/20 06:58:38;;;;;;;7.95;5.50;;;26.90;45.00;;;;;;4615468;56;21016;-31
2022/07/20 07:03:39;;;;;;;24.42;15.57;;;26.90;45.00;;;;;;4625072;56;21090;-27
2022/07/20 07:08:40;;;;;;;21.20;14.10;;;26.90;42.30;;;;;;4615322;56;21486;-28
2022/07/20 07:13:41;;;;;;;20.15;13.30;;;26.90;41.10;;;;;;4652108;56;21027;-31
2022/07/20 07:18:41;;;;;;;20.98;15.30;;;26.90;41.00;;;;;;4628001;56;21052;-28
2022/07/20 07:23:42;;;;;;;26.83;20.05;;;26.90;40.90;;;;;;4667815;56;21024;-31
2022/07/20 07:28:43;;;;;;;31.60;21.27;;;26.90;40.90;;;;;;4615513;60;21076;-28
2022/07/20 07:33:45;;;;;;;34.42;23.33;;;26.90;40.90;;;;;;4641650;56;21657;-27
2022/07/20 07:38:46;;;;;;;32.03;22.90;;;27.00;41.20;;;;;;4615261;60;21080;-29
2022/07/20 07:43:47;;;;;;;30.80;22.85;;;27.00;41.30;;;;;;4615346;56;21040;-29
2022/07/20 07:48:48;;;;;;;26.25;20.80;;;27.00;41.10;;;;;;4615507;60;21562;-32
2022/07/20 07:53:48;;;;;;;30.33;21.23;;;27.00;41.50;;;;;;4646007;56;21032;-30
2022/07/20 07:58:50;;;;;;;31.92;23.02;;;27.00;41.50;;;;;;4699586;56;21111;-32
2022/07/20 08:03:51;;;;;;;39.63;29.00;;;27.10;41.40;;;;;;4623334;56;21492;-33
2022/07/20 08:08:51;;;;;;;31.58;26.23;;;27.10;42.00;;;;;;4654451;56;21055;-30
2022/07/20 08:13:53;;;;;;;38.10;26.08;;;27.10;42.40;;;;;;4814551;56;21096;-31
2022/07/20 08:18:54;;;;;;;32.50;25.27;;;27.10;42.20;;;;;;4795477;56;21571;-27
2022/07/20 08:23:55;;;;;;;35.17;26.33;;;27.10;42.30;;;;;;4614294;60;21170;-29
2022/07/20 08:28:55;;;;;;;34.53;26.37;;;27.20;42.40;;;;;;4668728;56;21088;-31
2022/07/20 08:33:57;;;;;;;36.35;27.62;;;27.20;42.50;;;;;;4614039;60;21108;-32
2022/07/20 08:38:58;;;;;;;38.30;27.60;;;27.20;42.50;;;;;;4675097;56;21028;-29
2022/07/20 08:43:59;;;;;;;34.85;28.23;;;27.20;42.60;;;;;;4615095;60;21076;-30
2022/07/20 08:49:01;;;;;;;31.77;24.48;;;27.20;42.70;;;;;;4723271;56;21104;-30
2022/07/20 08:54:03;;;;;;;32.85;26.52;;;27.30;42.20;;;;;;4801646;56;21033;-28
2022/07/20 08:59:04;;;;;;;33.95;24.05;;;27.30;42.40;;;;;;4684668;56;21555;-30
2022/07/20 09:04:11;;;;;;;26.33;21.67;;;27.30;42.30;;;;;;4614969;60;21124;-27
2022/07/20 09:09:12;;;;;;;27.15;22.98;;;27.40;41.90;;;;;;4699078;56;21014;-32
2022/07/20 09:14:13;;;;;;;27.77;20.35;;;27.40;41.80;;;;;;4654243;56;21045;-30
2022/07/20 09:19:16;;;;;;;28.98;19.58;;;27.50;42.40;;;;;;4681316;56;21118;-31
2022/07/20 09:24:19;;;;;;;26.25;19.25;;;27.40;41.10;;;;;;4752902;56;21104;-35
2022/07/20 09:29:20;;;;;;;27.95;19.48;;;27.50;41.10;;;;;;4763579;56;21498;-30
2022/07/20 09:34:23;;;;;;;27.77;19.83;;;27.50;40.50;;;;;;4636405;56;21028;-29
2022/07/20 09:39:24;;;;;;;26.30;18.42;;;27.50;40.10;;;;;;4615222;60;21557;-30
2022/07/20 09:44:30;;;;;;;23.77;17.10;;;27.50;39.50;;;;;;4710381;56;21126;-30
2022/07/20 09:49:34;;;;;;;24.95;18.70;;;27.60;39.40;;;;;;4685957;56;21531;-31
2022/07/20 09:54:35;;;;;;;34.13;24.90;;;27.60;38.80;;;;;;4614606;57;21565;-30
2022/07/20 09:59:36;;;;;;;31.73;25.62;;;27.60;38.70;;;;;;4647906;56;21137;-31
2022/07/20 10:04:37;;;;;;;32.88;25.20;;;27.70;38.30;;;;;;4614701;60;21263;-30
2022/07/20 10:09:38;;;;;;;31.90;24.63;;;27.70;38.30;;;;;;4767416;56;21514;-28
2022/07/20 10:14:41;;;;;;;36.63;26.12;;;27.70;38.10;;;;;;4614597;60;21590;-29
2022/07/20 10:19:46;;;;;;;31.48;24.48;;;27.70;38.40;;;;;;4623357;56;21069;-31
2022/07/20 10:25:11;;;;;;;30.48;24.77;;;27.60;38.90;;;;;;4661022;56;20985;-27
2022/07/20 10:30:17;;;;;;;29.13;25.40;;;27.60;39.30;;;;;;4624806;56;21076;-33
2022/07/20 10:35:29;;;;;;;27.33;23.37;;;27.60;39.50;;;;;;4706662;56;21264;-30
2022/07/20 10:40:30;;;;;;;28.33;24.23;;;27.50;39.60;;;;;;4614948;60;20979;-34
2022/07/20 10:45:32;;;;;;;27.77;23.95;;;27.50;39.80;;;;;;4615076;60;21012;-31
2022/07/20 10:50:42;;;;;;;27.95;23.70;;;27.50;40.60;;;;;;4628000;56;21224;-33
2022/07/20 10:56:03;;;;;;;28.55;23.30;;;27.40;40.20;;;;;;4652874;56;21057;-29
2022/07/20 11:01:08;;;;;;;25.25;22.48;;;27.40;40.30;;;;;;4785154;56;21551;-28
2022/07/20 11:06:18;;;;;;;25.77;22.30;;;27.40;40.40;;;;;;4674712;56;21052;-31
2022/07/20 11:11:22;;;;;;;25.17;22.23;;;27.40;40.60;;;;;;4673718;56;21494;-30
2022/07/20 11:16:24;;;;;;;26.40;22.17;;;27.40;40.70;;;;;;4668985;56;21680;-30
2022/07/20 11:21:34;;;;;;;25.02;22.25;;;27.30;40.70;;;;;;4621918;56;21105;-31
2022/07/20 11:26:34;;;;;;;25.27;22.10;;;27.30;40.80;;;;;;4690198;56;21058;-30
2022/07/20 11:31:36;;;;;;;24.17;21.27;;;27.30;41.00;;;;;;4633522;56;21498;-30
2022/07/20 11:36:36;;;;;;;23.77;20.48;;;27.30;41.10;;;;;;4630754;56;21029;-31
2022/07/20 11:41:40;;;;;;;22.90;20.33;;;27.30;41.10;;;;;;4721801;56;21041;-31
2022/07/20 11:46:43;;;;;;;23.02;20.52;;;27.30;41.20;;;;;;4655739;56;21068;-30
2022/07/20 11:51:52;;;;;;;22.48;19.98;;;27.30;41.30;;;;;;4819245;56;21084;-33
2022/07/20 11:56:54;;;;;;;22.65;19.95;;;27.30;41.40;;;;;;4727837;56;21578;-32
2022/07/20 12:01:58;;;;;;;23.05;19.87;;;27.30;41.50;;;;;;4726361;56;21013;-29
2022/07/20 12:06:59;;;;;;;22.50;20.10;;;27.30;41.60;;;;;;4674704;56;21017;-30
2022/07/20 12:12:44;;;;;;;21.87;19.55;;;27.30;41.60;;;;;;4639350;56;21065;-34
2022/07/20 12:17:52;;;;;;;21.37;18.67;;;27.30;41.70;;;;;;4615537;60;21554;-30
2022/07/20 12:22:58;;;;;;;21.08;18.77;;;27.30;41.80;;;;;;4743276;56;21029;-32
2022/07/20 12:27:59;;;;;;;21.80;19.05;;;27.30;41.80;;;;;;4629774;56;21107;-31
2022/07/20 12:35:39;;;;;;;21.45;18.70;;;27.30;41.80;;;;;;4666248;56;21510;-35
2022/07/20 12:40:44;;;;;;;20.55;18.35;;;27.30;41.90;;;;;;4693416;56;21001;-29
2022/07/20 12:45:45;;;;;;;19.52;17.42;;;27.30;41.90;;;;;;4770893;56;21583;-33
2022/07/20 12:50:46;;;;;;;21.92;18.40;;;27.30;42.00;;;;;;4615805;56;21036;-29
2022/07/20 12:55:47;;;;;;;19.73;17.70;;;27.30;41.50;;;;;;4696038;56;21020;-30
2022/07/20 13:00:48;;;;;;;19.92;17.75;;;27.30;42.20;;;;;;4614895;60;21068;-32
2022/07/20 13:05:50;;;;;;;19.58;17.42;;;27.30;42.10;;;;;;4782526;56;21092;-31
2022/07/20 13:10:51;;;;;;;18.65;16.65;;;27.30;42.20;;;;;;4626436;56;21076;-31
2022/07/20 13:15:52;;;;;;;18.95;16.45;;;27.30;42.20;;;;;;4651748;56;21029;-35
2022/07/20 13:20:53;;;;;;;18.87;16.87;;;27.30;42.20;;;;;;4614988;60;21112;-32
2022/07/20 13:25:54;;;;;;;19.17;16.95;;;27.30;42.30;;;;;;4636954;56;21080;-30
2022/07/20 13:30:55;;;;;;;17.27;15.43;;;27.30;42.30;;;;;;4675479;56;21586;-30
2022/07/20 13:35:56;;;;;;;17.37;15.55;;;27.30;42.30;;;;;;4693203;56;21507;-31
2022/07/20 13:40:57;;;;;;;18.15;16.25;;;27.30;42.40;;;;;;4829697;56;21135;-33
2022/07/20 13:45:58;;;;;;;17.62;15.63;;;27.30;42.30;;;;;;4666779;56;21012;-29
2022/07/20 13:50:59;;;;;;;16.70;15.00;;;27.30;42.30;;;;;;4703615;56;21574;-30
2022/07/20 13:56:07;;;;;;;16.85;15.05;;;27.30;42.50;;;;;;4640390;56;21092;-29
2022/07/20 14:01:08;;;;;;;16.40;14.70;;;27.30;42.40;;;;;;4667189;56;21537;-29
2022/07/20 14:06:09;;;;;;;16.33;14.63;;;27.30;42.30;;;;;;4642205;56;21024;-30
2022/07/20 14:11:10;;;;;;;17.52;15.05;;;27.40;42.50;;;;;;4702122;56;21008;-30
2022/07/20 14:16:11;;;;;;;16.00;14.35;;;27.40;42.60;;;;;;4669684;56;21041;-29
2022/07/20 14:21:14;;;;;;;16.12;14.50;;;27.40;42.50;;;;;;4758060;56;21089;-31
2022/07/20 14:26:17;;;;;;;15.70;14.10;;;27.40;42.60;;;;;;4627288;56;21545;-30
2022/07/20 14:31:18;;;;;;;15.93;14.32;;;27.40;42.60;;;;;;4615259;56;21511;-30
2022/07/20 14:36:18;;;;;;;15.77;14.18;;;27.40;42.60;;;;;;4618554;56;21037;-31
2022/07/20 14:41:19;;;;;;;14.90;13.40;;;27.40;42.60;;;;;;4718610;56;21017;-29
2022/07/20 14:46:20;;;;;;;16.00;14.38;;;27.40;43.30;;;;;;4717292;56;21024;-30
2022/07/20 14:51:22;;;;;;;14.75;13.25;;;27.40;42.60;;;;;;4638716;56;21401;-30
2022/07/20 14:56:23;;;;;;;15.68;13.85;;;27.40;42.70;;;;;;4763639;56;21498;-33
2022/07/20 15:01:24;;;;;;;14.98;13.45;;;27.40;42.70;;;;;;4728822;56;21068;-32
2022/07/20 15:06:25;;;;;;;14.55;13.05;;;27.40;42.70;;;;;;4664185;56;21466;-29
2022/07/20 15:11:26;;;;;;;14.93;13.32;;;27.40;42.70;;;;;;4614932;60;21024;-28
2022/07/20 15:16:27;;;;;;;14.20;12.80;;;27.40;42.70;;;;;;4702611;56;21574;-30
2022/07/20 15:21:27;;;;;;;14.45;13.05;;;27.40;42.70;;;;;;4911122;56;21048;-33
2022/07/20 15:26:28;;;;;;;15.48;13.90;;;27.40;42.70;;;;;;4632133;56;21084;-29
2022/07/20 15:31:29;;;;;;;14.63;13.13;;;27.40;42.80;;;;;;4713008;56;21024;-29
2022/07/20 15:36:31;;;;;;;14.27;12.77;;;27.40;43.30;;;;;;4711557;56;21071;-32
2022/07/20 15:41:32;;;;;;;13.70;12.37;;;27.40;42.90;;;;;;4622976;56;21044;-32
2022/07/20 15:46:32;;;;;;;14.10;12.63;;;27.40;42.90;;;;;;4615692;60;21068;-28
2022/07/20 15:51:34;;;;;;;13.43;12.07;;;27.40;42.90;;;;;;4615604;60;21553;-31
2022/07/20 16:01:54;;;;;;;13.18;11.88;;;27.40;43.00;;;;;;4615033;56;21097;-29
2022/07/20 16:06:55;;;;;;;13.30;12.00;;;27.50;43.10;;;;;;4739827;56;21499;-29
2022/07/20 16:11:58;;;;;;;13.15;11.85;;;27.40;43.00;;;;;;4615329;60;21475;-30
2022/07/20 16:16:59;;;;;;;12.65;11.32;;;27.40;43.20;;;;;;4736978;56;21554;-33
2022/07/20 16:22:00;;;;;;;12.35;11.18;;;27.40;43.20;;;;;;4809238;56;21053;-33
2022/07/20 16:27:01;;;;;;;12.23;11.05;;;27.40;43.20;;;;;;4647863;56;21072;-29
2022/07/20 16:32:05;;;;;;;12.00;10.80;;;27.40;43.20;;;;;;4882930;56;21080;-28
2022/07/20 16:37:07;;;;;;;12.73;11.43;;;27.50;43.30;;;;;;4677139;56;21060;-31
2022/07/20 16:42:08;;;;;;;12.25;11.05;;;27.40;43.30;;;;;;4690118;56;21032;-30
2022/07/20 16:47:09;;;;;;;12.90;11.60;;;27.50;43.40;;;;;;4629181;56;21041;-31
2022/07/20 16:52:10;;;;;;;11.93;10.73;;;27.40;43.30;;;;;;4614893;58;21024;-31
2022/07/20 16:57:10;;;;;;;12.43;11.23;;;27.50;43.50;;;;;;4822780;56;21032;-34
2022/07/20 17:02:11;;;;;;;11.55;10.40;;;27.40;43.40;;;;;;4819040;56;21477;-30
2022/07/20 17:07:12;;;;;;;11.57;10.48;;;27.40;43.40;;;;;;4784406;56;20997;-31
2022/07/20 17:12:13;;;;;;;11.00;9.90;;;27.50;43.50;;;;;;4615385;56;21081;-32
2022/07/20 17:17:14;;;;;;;11.40;10.30;;;27.50;43.50;;;;;;4635432;56;21080;-28
2022/07/20 17:22:16;;;;;;;12.37;11.05;;;27.50;43.60;;;;;;4645437;56;21138;-30
2022/07/20 17:27:17;;;;;;;12.32;10.40;;;27.50;43.50;;;;;;4615117;60;21556;-31
2022/07/20 17:32:17;;;;;;;11.23;10.13;;;27.50;43.60;;;;;;4615521;60;21097;-32
2022/07/20 17:37:18;;;;;;;11.60;10.43;;;27.50;43.60;;;;;;4614076;60;21017;-30
2022/07/20 17:42:19;;;;;;;10.73;9.75;;;27.50;43.60;;;;;;4718411;56;21514;-29
2022/07/20 17:47:20;;;;;;;10.95;9.85;;;27.50;43.60;;;;;;4615214;60;21459;-35
2022/07/20 17:52:21;;;;;;;10.90;9.77;;;27.50;43.70;;;;;;4669728;56;21060;-30
2022/07/20 17:57:23;;;;;;;10.88;9.77;;;27.50;43.60;;;;;;4614187;60;21574;-32
2022/07/20 18:02:23;;;;;;;12.37;10.57;;;27.50;43.60;;;;;;4849455;56;21020;-30
2022/07/20 18:07:24;;;;;;;11.25;10.07;;;27.50;43.60;;;;;;4622598;56;21080;-32
2022/07/20 18:12:25;;;;;;;11.38;10.27;;;27.50;44.30;;;;;;4938777;56;21898;-33
2022/07/20 18:17:26;;;;;;;10.68;9.68;;;27.50;43.70;;;;;;4615292;56;21087;-35
2022/07/20 18:22:27;;;;;;;11.07;9.98;;;27.50;43.70;;;;;;4690293;56;21606;-30
2022/07/20 18:27:28;;;;;;;10.88;9.77;;;27.50;43.70;;;;;;4742373;56;21016;-29
2022/07/20 18:32:29;;;;;;;11.10;9.90;;;27.50;43.70;;;;;;4615089;60;21479;-30
2022/07/20 18:37:30;;;;;;;9.90;8.90;;;27.50;43.70;;;;;;4614076;57;21028;-30
2022/07/20 18:42:31;;;;;;;10.13;9.13;;;27.50;43.70;;;;;;4670027;56;21061;-30
2022/07/20 18:47:32;;;;;;;11.25;9.80;;;27.50;43.70;;;;;;4615107;60;21068;-31
2022/07/20 18:52:34;;;;;;;10.82;9.82;;;27.50;43.80;;;;;;4615041;60;21487;-28
2022/07/20 18:57:35;;;;;;;11.25;10.18;;;27.50;43.80;;;;;;4667819;56;21594;-29
2022/07/20 19:02:35;;;;;;;10.68;9.68;;;27.50;43.80;;;;;;4700875;56;21080;-29
2022/07/20 19:07:37;;;;;;;10.65;9.55;;;27.50;43.80;;;;;;4711044;56;21071;-30
2022/07/20 19:12:37;;;;;;;10.85;9.80;;;27.50;43.80;;;;;;4625266;56;21071;-29
2022/07/20 19:17:40;;;;;;;10.88;9.77;;;27.50;43.80;;;;;;4621773;56;21487;-32
2022/07/20 19:22:41;;;;;;;10.50;9.50;;;27.50;43.80;;;;;;4614674;60;21511;-30
2022/07/20 19:27:45;;;;;;;10.70;9.70;;;27.50;43.90;;;;;;4780900;56;21021;-32
2022/07/20 19:32:47;;;;;;;10.18;9.25;;;27.50;44.00;;;;;;4615537;60;21567;-34
2022/07/20 19:37:48;;;;;;;11.15;9.95;;;27.50;43.90;;;;;;4650496;56;21068;-30
2022/07/20 19:42:49;;;;;;;11.00;9.90;;;27.50;43.90;;;;;;4900599;56;21028;-30
2022/07/20 19:47:50;;;;;;;10.80;9.73;;;27.50;43.90;;;;;;4970127;56;21032;-31
2022/07/20 19:52:51;;;;;;;10.25;9.25;;;27.50;44.00;;;;;;4777057;56;21068;-31
2022/07/20 19:57:52;;;;;;;10.52;9.50;;;27.50;44.00;;;;;;4615273;60;21534;-31
2022/07/20 20:02:53;;;;;;;10.43;9.32;;;27.50;44.10;;;;;;4743957;56;21081;-29
2022/07/20 20:07:54;;;;;;;10.38;9.38;;;27.50;44.00;;;;;;4615429;57;21016;-30
2022/07/20 20:12:55;;;;;;;10.13;9.13;;;27.50;44.10;;;;;;4724553;56;21611;-30
2022/07/20 20:17:56;;;;;;;9.75;8.85;;;27.50;44.20;;;;;;4647734;56;21081;-31
2022/07/20 20:22:56;;;;;;;10.15;9.15;;;27.50;44.10;;;;;;4645416;56;21084;-30
2022/07/20 20:27:58;;;;;;;10.40;9.40;;;27.50;44.10;;;;;;4615123;57;21024;-28
2022/07/20 20:32:59;;;;;;;10.23;9.23;;;27.50;44.20;;;;;;4902179;56;21551;-30
2022/07/20 20:38:01;;;;;;;11.25;10.07;;;27.50;44.30;;;;;;4718024;56;21080;-31
2022/07/20 20:43:02;;;;;;;10.40;9.38;;;27.50;44.20;;;;;;4745609;56;21502;-29
2022/07/20 20:48:03;;;;;;;10.70;9.43;;;27.50;44.20;;;;;;4667102;56;21008;-35
2022/07/20 20:53:05;;;;;;;9.75;8.85;;;27.50;44.30;;;;;;4712983;56;21020;-29
2022/07/20 20:58:06;;;;;;;10.10;9.02;;;27.50;44.30;;;;;;4760514;56;21491;-33
2022/07/20 21:03:06;;;;;;;9.75;8.75;;;27.50;44.30;;;;;;4850471;56;21021;-31
2022/07/20 21:08:08;;;;;;;9.65;8.73;;;27.50;44.30;;;;;;4691055;56;21507;-31
2022/07/20 21:13:08;;;;;;;10.32;9.32;;;27.50;44.40;;;;;;4833808;56;21556;-29
2022/07/20 21:18:09;;;;;;;9.93;8.90;;;27.50;44.50;;;;;;4665489;56;21032;-30
2022/07/20 21:23:10;;;;;;;9.55;8.65;;;27.50;44.50;;;;;;4869737;56;21048;-31
2022/07/20 21:28:11;;;;;;;10.15;9.07;;;27.50;44.50;;;;;;4615140;60;21016;-28
2022/07/20 21:33:12;;;;;;;9.80;8.80;;;27.50;44.50;;;;;;4683312;56;21001;-30
2022/07/20 21:38:12;;;;;;;9.13;8.02;;;27.50;44.50;;;;;;4654628;56;21144;-28
2022/07/20 21:43:13;;;;;;;9.77;8.88;;;27.50;44.60;;;;;;4817589;56;21506;-30
2022/07/20 21:48:15;;;;;;;9.23;8.32;;;27.50;44.70;;;;;;4731843;56;21064;-31
2022/07/20 21:53:16;;;;;;;9.38;8.38;;;27.50;44.80;;;;;;4686429;56;21580;-30
2022/07/20 21:58:17;;;;;;;10.10;9.10;;;27.50;44.80;;;;;;4630978;56;21033;-31
2022/07/20 22:03:17;;;;;;;9.25;8.35;;;27.50;44.90;;;;;;4846982;56;21028;-29
2022/07/20 22:08:19;;;;;;;8.98;8.10;;;27.50;45.00;;;;;;5072868;56;21487;-30
2022/07/20 22:13:20;;;;;;;8.93;8.13;;;27.50;45.00;;;;;;4670796;56;21530;-28
2022/07/20 22:18:21;;;;;;;9.77;8.77;;;27.40;45.00;;;;;;4753948;56;21028;-30
2022/07/20 22:23:22;;;;;;;9.10;8.20;;;27.50;45.10;;;;;;4614210;60;21065;-34
2022/07/20 22:28:23;;;;;;;8.90;7.78;;;27.40;45.00;;;;;;4630488;56;21012;-33
2022/07/20 22:33:24;;;;;;;8.95;8.13;;;27.50;45.20;;;;;;4615445;60;21036;-32
2022/07/20 22:38:25;;;;;;;9.02;7.95;;;27.50;45.20;;;;;;4615314;60;21008;-32
2022/07/20 22:43:26;;;;;;;8.82;7.97;;;27.50;45.90;;;;;;4861530;56;21032;-26
2022/07/20 22:48:26;;;;;;;9.57;8.50;;;27.40;45.30;;;;;;4819539;56;21040;-31
2022/07/20 22:53:28;;;;;;;8.43;7.62;;;27.50;45.40;;;;;;4778245;56;21040;-30
2022/07/20 22:58:29;;;;;;;8.75;7.95;;;27.50;45.40;;;;;;4673905;56;21470;-28
2022/07/20 23:03:30;;;;;;;8.48;7.68;;;27.50;45.40;;;;;;4962781;56;21060;-29
2022/07/20 23:08:31;;;;;;;8.75;7.85;;;27.50;45.50;;;;;;4736462;56;21474;-29
2022/07/20 23:13:33;;;;;;;8.68;7.82;;;27.50;45.60;;;;;;4802474;56;21032;-29
2022/07/20 23:18:34;;;;;;;8.80;7.97;;;27.50;45.70;;;;;;4615703;56;21547;-29
2022/07/20 23:23:35;;;;;;;8.60;7.80;;;27.50;46.30;;;;;;4614764;57;21048;-31
2022/07/20 23:28:36;;;;;;;8.20;7.40;;;27.50;45.60;;;;;;4663058;56;21045;-30
2022/07/20 23:33:36;;;;;;;8.15;7.03;;;27.50;45.70;;;;;;5073295;56;21024;-29
2022/07/20 23:38:37;;;;;;;8.15;7.37;;;27.50;45.70;;;;;;4789189;56;21028;-29
2022/07/20 23:43:38;;;;;;;8.20;7.40;;;27.40;45.70;;;;;;4618675;56;21092;-31
2022/07/20 23:48:39;;;;;;;8.00;7.30;;;27.50;46.20;;;;;;4657933;56;21076;-28
2022/07/20 23:53:40;;;;;;;8.60;7.80;;;27.50;45.90;;;;;;4748690;56;21040;-33
2022/07/20 23:58:41;;;;;;;8.32;7.55;;;27.50;45.80;;;;;;4615705;60;21545;-35
